Terminal Aerodrome Forecast
Issued by NWS

Home | Current Version | Previous Version | Graphics & Text | Print | Product List | Glossary On
Versions: 1 2 3 4 5 6 7 8 9 10 11 12 13 14 15 16 17 18 19 20 21 22 23 24 25 26 27
000
FTUS43 KMPX 011000 AAC
TAFAXN
TAF AMD
KAXN 011000Z 0110/0206 16012KT 1SM BR OVC003
     FM011430 18011KT P6SM OVC007
     FM011600 20011KT P6SM BKN015
     FM012000 21008KT P6SM SCT030 BKN100
     FM020000 27007KT P6SM SCT020 BKN080=

USA.gov is the U.S. government's official web portal to all federal, state and local government web resources and services.